Time;durP1;ratioP1;P1;durP2;ratioP2;P2;SDS_P1;SDS_P2;PMS_P1;PMS_P2;Temp;Humidity;BMP_temperature;BMP_pressure;BME280_temperature;BME280_humidity;BME280_pressure;Samples;Min_cycle;Max_cycle;Signal;HPM_P1;HPM_P2
2024/04/10 00:00:29;;;;;;;;;;;;;;;;;;2225611;26;19925;-73
2024/04/10 00:01:31;;;;;;;;;;;;;;;;;;2226213;26;19925;-72
2024/04/10 00:02:32;;;;;;;;;;;;;;;;;;2226395;26;19940;-71
2024/04/10 00:03:34;;;;;;;;;;;;;;;;;;2226459;26;19995;-70
2024/04/10 00:04:35;;;;;;;;;;;;;;;;;;2224410;26;19936;-71
2024/04/10 00:05:36;;;;;;;;;;;;;;;;;;2225380;26;20286;-71
2024/04/10 00:06:37;;;;;;;;;;;;;;;;;;2225551;26;19925;-72
2024/04/10 00:07:39;;;;;;;;;;;;;;;;;;2226069;26;19995;-71
2024/04/10 00:08:40;;;;;;;;;;;;;;;;;;2226142;26;19926;-74
2024/04/10 00:09:41;;;;;;;;;;;;;;;;;;2226265;26;19932;-73
2024/04/10 00:10:42;;;;;;;;;;;;;;;;;;2226316;26;20051;-73
2024/04/10 00:11:43;;;;;;;;;;;;;;;;;;2226249;26;20597;-73
2024/04/10 00:12:45;;;;;;;;;;;;;;;;;;2226293;26;19933;-73
2024/04/10 00:13:46;;;;;;;;;;;;;;;;;;2226381;26;19957;-73
2024/04/10 00:14:47;;;;;;;;;;;;;;;;;;2226223;26;19957;-72
2024/04/10 00:15:48;;;;;;;;;;;;;;;;;;2226427;26;19958;-70
2024/04/10 00:16:50;;;;;;;;;;;;;;;;;;2226219;26;19932;-70
2024/04/10 00:17:51;;;;;;;;;;;;;;;;;;2226209;26;19925;-71
2024/04/10 00:18:52;;;;;;;;;;;;;;;;;;2226118;26;19932;-70
2024/04/10 00:19:53;;;;;;;;;;;;;;;;;;2225055;26;20012;-71
2024/04/10 00:20:54;;;;;;;;;;;;;;;;;;2225197;26;20262;-70
2024/04/10 00:21:56;;;;;;;;;;;;;;;;;;2226047;26;19925;-73
2024/04/10 00:22:57;;;;;;;;;;;;;;;;;;2226714;26;20251;-70
2024/04/10 00:23:58;;;;;;;;;;;;;;;;;;2226236;26;20313;-73
2024/04/10 00:25:01;;;;;;;;;;;;;;;;;;2226293;26;20413;-72
2024/04/10 00:26:03;;;;;;;;;;;;;;;;;;2225955;26;19925;-69
2024/04/10 00:27:05;;;;;;;;;;;;;;;;;;2228153;26;20254;-71
2024/04/10 00:28:06;;;;;;;;;;;;;;;;;;2226340;26;20324;-70
2024/04/10 00:29:07;;;;;;;;;;;;;;;;;;2226059;26;20071;-72
2024/04/10 00:30:08;;;;;;;;;;;;;;;;;;2226492;26;20390;-75
2024/04/10 00:31:10;;;;;;;;;;;;;;;;;;2226183;26;19937;-72
2024/04/10 00:32:11;;;;;;;;;;;;;;;;;;2226337;26;20020;-73
2024/04/10 00:33:12;;;;;;;;;;;;;;;;;;2225907;26;19933;-70
2024/04/10 00:34:13;;;;;;;;;;;;;;;;;;2226181;26;20397;-72
2024/04/10 00:35:15;;;;;;;;;;;;;;;;;;2224201;26;19933;-71
2024/04/10 00:36:16;;;;;;;;;;;;;;;;;;2226320;26;19927;-72
2024/04/10 00:37:17;;;;;;;;;;;;;;;;;;2226321;26;19925;-71
2024/04/10 00:38:18;;;;;;;;;;;;;;;;;;2226180;26;19994;-69
2024/04/10 00:39:20;;;;;;;;;;;;;;;;;;2226353;26;19933;-70
2024/04/10 00:40:21;;;;;;;;;;;;;;;;;;2226163;26;19937;-73
2024/04/10 00:41:22;;;;;;;;;;;;;;;;;;2227490;26;20347;-70
2024/04/10 00:42:23;;;;;;;;;;;;;;;;;;2226097;26;21451;-72
2024/04/10 00:43:25;;;;;;;;;;;;;;;;;;2226167;26;20263;-72
2024/04/10 00:44:26;;;;;;;;;;;;;;;;;;2226088;26;20320;-71
2024/04/10 00:45:27;;;;;;;;;;;;;;;;;;2226360;26;20428;-69
2024/04/10 00:46:29;;;;;;;;;;;;;;;;;;2226210;26;19945;-72
2024/04/10 00:47:30;;;;;;;;;;;;;;;;;;2225824;26;19999;-72
2024/04/10 00:48:31;;;;;;;;;;;;;;;;;;2226307;26;19932;-72
2024/04/10 00:49:32;;;;;;;;;;;;;;;;;;2226653;26;19933;-71
2024/04/10 00:50:34;;;;;;;;;;;;;;;;;;2225924;26;19969;-72
2024/04/10 00:51:35;;;;;;;;;;;;;;;;;;2225297;26;19961;-72
2024/04/10 00:52:36;;;;;;;;;;;;;;;;;;2224281;26;19933;-72
2024/04/10 00:53:39;;;;;;;;;;;;;;;;;;2225457;26;20251;-72
2024/04/10 00:54:40;;;;;;;;;;;;;;;;;;2225882;26;19932;-73
2024/04/10 00:55:41;;;;;;;;;;;;;;;;;;2225397;26;19932;-72
2024/04/10 00:56:42;;;;;;;;;;;;;;;;;;2225327;26;19933;-73
2024/04/10 00:57:43;;;;;;;;;;;;;;;;;;2226199;26;20311;-73
2024/04/10 00:58:45;;;;;;;;;;;;;;;;;;2226142;26;20383;-72
2024/04/10 00:59:46;;;;;;;;;;;;;;;;;;2226190;26;19936;-73
2024/04/10 01:00:48;;;;;;;;;;;;;;;;;;2226021;26;20365;-72
2024/04/10 01:01:49;;;;;;;;;;;;;;;;;;2226101;26;19926;-74
2024/04/10 01:02:51;;;;;;;;;;;;;;;;;;2226106;26;19933;-73
2024/04/10 01:03:53;;;;;;;;;;;;;;;;;;2226283;26;19934;-72
2024/04/10 01:04:54;;;;;;;;;;;;;;;;;;2225980;26;19989;-70
2024/04/10 01:05:57;;;;;;;;;;;;;;;;;;2225182;26;20045;-72
2024/04/10 01:06:58;;;;;;;;;;;;;;;;;;2225261;26;19937;-73
2024/04/10 01:08:01;;;;;;;;;;;;;;;;;;2225786;26;19926;-71
2024/04/10 01:09:03;;;;;;;;;;;;;;;;;;2223799;26;19932;-71
2024/04/10 01:10:04;;;;;;;;;;;;;;;;;;2225940;26;19926;-72
2024/04/10 01:11:06;;;;;;;;;;;;;;;;;;2226098;26;19945;-72
2024/04/10 01:12:07;;;;;;;;;;;;;;;;;;2224555;26;19936;-72
2024/04/10 01:13:08;;;;;;;;;;;;;;;;;;2225797;26;19933;-70
2024/04/10 01:14:09;;;;;;;;;;;;;;;;;;2226100;26;19933;-72
2024/04/10 01:15:11;;;;;;;;;;;;;;;;;;2227371;26;19925;-73
2024/04/10 01:16:12;;;;;;;;;;;;;;;;;;2223602;26;19999;-74
2024/04/10 01:17:13;;;;;;;;;;;;;;;;;;2226047;26;19932;-72
2024/04/10 01:18:15;;;;;;;;;;;;;;;;;;2225796;26;20358;-72
2024/04/10 01:19:16;;;;;;;;;;;;;;;;;;2225887;26;20250;-72
2024/04/10 01:20:18;;;;;;;;;;;;;;;;;;2225712;26;19990;-73
2024/04/10 01:21:20;;;;;;;;;;;;;;;;;;2225796;26;19933;-72
2024/04/10 01:22:21;;;;;;;;;;;;;;;;;;2225816;26;19926;-73
2024/04/10 01:23:22;;;;;;;;;;;;;;;;;;2225953;26;20259;-73
2024/04/10 01:24:25;;;;;;;;;;;;;;;;;;2225910;26;20321;-72
2024/04/10 01:25:26;;;;;;;;;;;;;;;;;;2225307;26;19958;-74
2024/04/10 01:26:27;;;;;;;;;;;;;;;;;;2224737;26;20250;-72
2024/04/10 01:27:29;;;;;;;;;;;;;;;;;;2225931;26;19949;-71
2024/04/10 01:28:30;;;;;;;;;;;;;;;;;;2225846;26;19958;-72
2024/04/10 01:29:32;;;;;;;;;;;;;;;;;;2225874;26;19980;-72
2024/04/10 01:30:33;;;;;;;;;;;;;;;;;;2225934;26;19925;-71
2024/04/10 01:31:34;;;;;;;;;;;;;;;;;;2225889;26;19925;-73
2024/04/10 01:32:35;;;;;;;;;;;;;;;;;;2225848;26;19962;-73
2024/04/10 01:33:37;;;;;;;;;;;;;;;;;;2226157;26;19932;-73
2024/04/10 01:34:38;;;;;;;;;;;;;;;;;;2226349;26;19954;-73
2024/04/10 01:35:39;;;;;;;;;;;;;;;;;;2226365;26;19970;-73
2024/04/10 01:36:41;;;;;;;;;;;;;;;;;;2225996;26;19936;-73
2024/04/10 01:37:43;;;;;;;;;;;;;;;;;;2223522;26;19961;-71
2024/04/10 01:38:44;;;;;;;;;;;;;;;;;;2225941;26;19926;-70
2024/04/10 01:39:47;;;;;;;;;;;;;;;;;;2225761;26;20373;-70
2024/04/10 01:40:48;;;;;;;;;;;;;;;;;;2225739;26;19925;-69
2024/04/10 01:41:49;;;;;;;;;;;;;;;;;;2225963;26;19940;-70
2024/04/10 01:42:52;;;;;;;;;;;;;;;;;;2224383;26;19995;-70
2024/04/10 01:43:53;;;;;;;;;;;;;;;;;;2224106;26;19933;-70
2024/04/10 01:44:55;;;;;;;;;;;;;;;;;;2224788;26;19926;-71
2024/04/10 01:45:57;;;;;;;;;;;;;;;;;;2225038;26;20436;-71
2024/04/10 01:46:58;;;;;;;;;;;;;;;;;;2225772;26;20001;-69
2024/04/10 01:47:59;;;;;;;;;;;;;;;;;;2225785;26;20001;-72
2024/04/10 01:49:04;;;;;;;;;;;;;;;;;;2224906;26;21328;-70
2024/04/10 01:50:05;;;;;;;;;;;;;;;;;;2225707;26;19926;-72
2024/04/10 01:51:06;;;;;;;;;;;;;;;;;;2225290;26;20366;-72
2024/04/10 01:52:09;;;;;;;;;;;;;;;;;;2225728;26;20366;-72
2024/04/10 01:53:10;;;;;;;;;;;;;;;;;;2225770;26;20354;-72
2024/04/10 01:54:13;;;;;;;;;;;;;;;;;;2225784;26;19925;-71
2024/04/10 01:55:15;;;;;;;;;;;;;;;;;;2225178;26;19925;-71
2024/04/10 01:56:16;;;;;;;;;;;;;;;;;;2225783;26;20068;-71
2024/04/10 01:57:17;;;;;;;;;;;;;;;;;;2225989;26;19925;-71
2024/04/10 01:58:19;;;;;;;;;;;;;;;;;;2225726;26;19929;-71
2024/04/10 01:59:21;;;;;;;;;;;;;;;;;;2225711;26;19932;-72
2024/04/10 02:00:24;;;;;;;;;;;;;;;;;;2223385;26;19933;-71
2024/04/10 02:01:27;;;;;;;;;;;;;;;;;;2225728;26;20412;-70
2024/04/10 02:02:28;;;;;;;;;;;;;;;;;;2225670;26;20258;-73
2024/04/10 02:03:29;;;;;;;;;;;;;;;;;;2225840;26;19996;-72
2024/04/10 02:04:32;;;;;;;;;;;;;;;;;;2225625;26;21453;-71
2024/04/10 02:05:33;;;;;;;;;;;;;;;;;;2223273;26;19958;-71
2024/04/10 02:06:34;;;;;;;;;;;;;;;;;;2225527;26;19932;-70
2024/04/10 02:07:35;;;;;;;;;;;;;;;;;;2226198;26;20085;-72
2024/04/10 02:08:36;;;;;;;;;;;;;;;;;;2225616;26;20016;-72
2024/04/10 02:09:38;;;;;;;;;;;;;;;;;;2225677;26;19933;-71
2024/04/10 02:10:39;;;;;;;;;;;;;;;;;;2224719;26;19933;-72
2024/04/10 02:11:41;;;;;;;;;;;;;;;;;;2224922;26;20365;-73
2024/04/10 02:12:43;;;;;;;;;;;;;;;;;;2222688;26;19940;-73
2024/04/10 02:13:44;;;;;;;;;;;;;;;;;;2225792;26;19926;-73
2024/04/10 02:14:45;;;;;;;;;;;;;;;;;;2225577;26;19925;-73
2024/04/10 02:15:46;;;;;;;;;;;;;;;;;;2224706;26;19929;-71
2024/04/10 02:16:48;;;;;;;;;;;;;;;;;;2224799;26;19932;-74
2024/04/10 02:17:49;;;;;;;;;;;;;;;;;;2225552;26;19933;-72
2024/04/10 02:18:50;;;;;;;;;;;;;;;;;;2225767;26;19925;-73
2024/04/10 02:19:51;;;;;;;;;;;;;;;;;;2225691;26;20416;-73
2024/04/10 02:20:53;;;;;;;;;;;;;;;;;;2225330;26;20266;-72
2024/04/10 02:21:54;;;;;;;;;;;;;;;;;;2224812;26;19925;-70
2024/04/10 02:22:55;;;;;;;;;;;;;;;;;;2224700;26;19926;-72
2024/04/10 02:23:56;;;;;;;;;;;;;;;;;;2227129;26;20365;-74
2024/04/10 02:24:57;;;;;;;;;;;;;;;;;;2226117;26;19933;-74
2024/04/10 02:26:00;;;;;;;;;;;;;;;;;;2212004;26;20244;-72
2024/04/10 02:27:01;;;;;;;;;;;;;;;;;;2226479;26;19925;-73
2024/04/10 02:28:02;;;;;;;;;;;;;;;;;;2227387;26;20362;-72
2024/04/10 02:29:04;;;;;;;;;;;;;;;;;;2227705;26;19926;-71
2024/04/10 02:30:06;;;;;;;;;;;;;;;;;;2227397;26;19995;-70
2024/04/10 02:31:07;;;;;;;;;;;;;;;;;;2227626;26;19925;-70
2024/04/10 02:32:09;;;;;;;;;;;;;;;;;;2227465;26;19927;-69
2024/04/10 02:33:10;;;;;;;;;;;;;;;;;;2226708;26;19953;-68
2024/04/10 02:34:11;;;;;;;;;;;;;;;;;;2227108;26;19937;-73
2024/04/10 02:35:13;;;;;;;;;;;;;;;;;;2226791;26;20378;-73
2024/04/10 02:36:14;;;;;;;;;;;;;;;;;;2226770;26;19925;-73
2024/04/10 02:37:15;;;;;;;;;;;;;;;;;;2226977;26;19925;-72
2024/04/10 02:38:17;;;;;;;;;;;;;;;;;;2226988;26;19925;-73
2024/04/10 02:39:18;;;;;;;;;;;;;;;;;;2226884;26;19932;-74
2024/04/10 02:40:19;;;;;;;;;;;;;;;;;;2225916;26;19994;-73
2024/04/10 02:41:20;;;;;;;;;;;;;;;;;;2226175;26;19925;-73
2024/04/10 02:42:21;;;;;;;;;;;;;;;;;;2227124;26;19925;-71
2024/04/10 02:43:22;;;;;;;;;;;;;;;;;;2227735;26;19933;-73
2024/04/10 02:44:24;;;;;;;;;;;;;;;;;;2228815;26;19932;-70
2024/04/10 02:45:26;;;;;;;;;;;;;;;;;;2226947;26;19925;-73
2024/04/10 02:46:27;;;;;;;;;;;;;;;;;;2226717;26;19926;-74
2024/04/10 02:47:28;;;;;;;;;;;;;;;;;;2226943;26;19925;-73
2024/04/10 02:48:29;;;;;;;;;;;;;;;;;;2226836;26;19999;-73
2024/04/10 02:49:30;;;;;;;;;;;;;;;;;;2226931;26;19925;-73
2024/04/10 02:50:32;;;;;;;;;;;;;;;;;;2224335;26;19933;-72
2024/04/10 02:51:33;;;;;;;;;;;;;;;;;;2226617;26;19932;-73
2024/04/10 02:52:34;;;;;;;;;;;;;;;;;;2226814;26;19953;-72
2024/04/10 02:53:36;;;;;;;;;;;;;;;;;;2226857;26;19994;-71
2024/04/10 02:54:37;;;;;;;;;;;;;;;;;;2226720;26;19925;-73
2024/04/10 02:55:38;;;;;;;;;;;;;;;;;;2226703;26;19925;-73
2024/04/10 02:56:39;;;;;;;;;;;;;;;;;;2226791;26;19925;-72
2024/04/10 02:57:41;;;;;;;;;;;;;;;;;;2226776;26;19957;-72
2024/04/10 02:58:42;;;;;;;;;;;;;;;;;;2224388;26;19933;-73
2024/04/10 02:59:43;;;;;;;;;;;;;;;;;;2226749;26;19933;-71
2024/04/10 03:00:44;;;;;;;;;;;;;;;;;;2225691;26;19966;-71
2024/04/10 03:01:45;;;;;;;;;;;;;;;;;;2225965;26;19931;-72
2024/04/10 03:02:47;;;;;;;;;;;;;;;;;;2226715;26;20269;-72
2024/04/10 03:03:48;;;;;;;;;;;;;;;;;;2226675;26;20424;-69
2024/04/10 03:04:49;;;;;;;;;;;;;;;;;;2226664;26;19932;-69
2024/04/10 03:05:51;;;;;;;;;;;;;;;;;;2226697;26;19925;-72
2024/04/10 03:06:53;;;;;;;;;;;;;;;;;;2224125;26;19940;-72
2024/04/10 03:07:54;;;;;;;;;;;;;;;;;;2226659;26;19925;-69
2024/04/10 03:08:56;;;;;;;;;;;;;;;;;;2226866;26;20326;-69
2024/04/10 03:09:57;;;;;;;;;;;;;;;;;;2226505;26;20343;-68
2024/04/10 03:10:58;;;;;;;;;;;;;;;;;;2226686;26;19950;-72
2024/04/10 03:11:59;;;;;;;;;;;;;;;;;;2226736;26;20346;-72
2024/04/10 03:13:00;;;;;;;;;;;;;;;;;;2226623;26;19926;-73
2024/04/10 03:14:01;;;;;;;;;;;;;;;;;;2226680;26;19941;-73
2024/04/10 03:15:04;;;;;;;;;;;;;;;;;;2224594;26;19937;-72
2024/04/10 03:16:06;;;;;;;;;;;;;;;;;;2226734;26;19925;-73
2024/04/10 03:17:08;;;;;;;;;;;;;;;;;;2226596;26;19976;-73
2024/04/10 03:18:09;;;;;;;;;;;;;;;;;;2226659;26;19995;-74
2024/04/10 03:19:11;;;;;;;;;;;;;;;;;;2226124;26;19925;-73
2024/04/10 03:20:12;;;;;;;;;;;;;;;;;;2224016;26;20033;-72
2024/04/10 03:21:15;;;;;;;;;;;;;;;;;;2224739;26;20317;-72
2024/04/10 03:22:16;;;;;;;;;;;;;;;;;;2226357;26;19925;-72
2024/04/10 03:23:17;;;;;;;;;;;;;;;;;;2226673;26;19933;-70
2024/04/10 03:24:19;;;;;;;;;;;;;;;;;;2224368;26;19925;-73
2024/04/10 03:25:21;;;;;;;;;;;;;;;;;;2225913;26;19925;-70
2024/04/10 03:26:22;;;;;;;;;;;;;;;;;;2225795;26;19933;-69
2024/04/10 03:27:23;;;;;;;;;;;;;;;;;;2226580;26;19937;-73
2024/04/10 03:28:25;;;;;;;;;;;;;;;;;;2226381;26;19962;-71
2024/04/10 03:29:26;;;;;;;;;;;;;;;;;;2226686;26;19925;-72
2024/04/10 03:30:29;;;;;;;;;;;;;;;;;;2225642;26;20063;-71
2024/04/10 03:31:30;;;;;;;;;;;;;;;;;;2225776;26;19984;-74
2024/04/10 03:32:31;;;;;;;;;;;;;;;;;;2226372;26;19926;-73
2024/04/10 03:33:33;;;;;;;;;;;;;;;;;;2226677;26;19933;-71
2024/04/10 03:34:34;;;;;;;;;;;;;;;;;;2226320;26;19925;-73
2024/04/10 03:35:35;;;;;;;;;;;;;;;;;;2225985;26;19961;-71
2024/04/10 03:36:36;;;;;;;;;;;;;;;;;;2226196;26;19969;-70
2024/04/10 03:37:38;;;;;;;;;;;;;;;;;;2226668;26;19926;-73
2024/04/10 03:38:39;;;;;;;;;;;;;;;;;;2226459;26;19949;-70
2024/04/10 03:39:41;;;;;;;;;;;;;;;;;;2226571;26;19925;-72
2024/04/10 03:40:42;;;;;;;;;;;;;;;;;;2224280;26;20401;-73
2024/04/10 03:41:43;;;;;;;;;;;;;;;;;;2226491;26;19925;-69
2024/04/10 03:42:46;;;;;;;;;;;;;;;;;;2226268;26;20455;-72
2024/04/10 03:43:48;;;;;;;;;;;;;;;;;;2226177;26;19925;-72
2024/04/10 03:44:49;;;;;;;;;;;;;;;;;;2226724;26;19926;-70
2024/04/10 03:45:52;;;;;;;;;;;;;;;;;;2226411;26;20366;-69
2024/04/10 03:46:53;;;;;;;;;;;;;;;;;;2224244;26;19925;-72
2024/04/10 03:47:55;;;;;;;;;;;;;;;;;;2226523;26;19933;-73
2024/04/10 03:48:56;;;;;;;;;;;;;;;;;;2226350;26;19958;-71
2024/04/10 03:49:57;;;;;;;;;;;;;;;;;;2226489;26;19932;-70
2024/04/10 03:50:58;;;;;;;;;;;;;;;;;;2226498;26;19969;-70
2024/04/10 03:52:00;;;;;;;;;;;;;;;;;;2226249;26;20341;-71
2024/04/10 03:53:01;;;;;;;;;;;;;;;;;;2226388;26;20369;-72
2024/04/10 03:54:02;;;;;;;;;;;;;;;;;;2226411;26;20367;-70
2024/04/10 03:55:03;;;;;;;;;;;;;;;;;;2226445;26;19925;-73
2024/04/10 03:56:05;;;;;;;;;;;;;;;;;;2226441;26;19925;-70
2024/04/10 03:57:06;;;;;;;;;;;;;;;;;;2226399;26;19929;-71
2024/04/10 03:58:08;;;;;;;;;;;;;;;;;;2226714;26;19926;-71
2024/04/10 03:59:11;;;;;;;;;;;;;;;;;;2225481;26;19933;-71
2024/04/10 04:00:12;;;;;;;;;;;;;;;;;;2225979;26;19962;-70
2024/04/10 04:01:14;;;;;;;;;;;;;;;;;;2225697;26;19925;-71
2024/04/10 04:02:15;;;;;;;;;;;;;;;;;;2222268;26;19925;-66
2024/04/10 04:03:17;;;;;;;;;;;;;;;;;;2224579;26;19932;-69
2024/04/10 04:04:18;;;;;;;;;;;;;;;;;;2226203;26;19937;-65
2024/04/10 04:05:19;;;;;;;;;;;;;;;;;;2227551;26;19933;-67
2024/04/10 04:06:20;;;;;;;;;;;;;;;;;;2229621;26;20270;-71
2024/04/10 04:07:23;;;;;;;;;;;;;;;;;;2226994;26;20365;-74
2024/04/10 04:08:24;;;;;;;;;;;;;;;;;;2225345;26;20219;-65
2024/04/10 04:09:25;;;;;;;;;;;;;;;;;;2226207;26;19926;-71
2024/04/10 04:10:26;;;;;;;;;;;;;;;;;;2226314;26;20067;-69
2024/04/10 04:11:27;;;;;;;;;;;;;;;;;;2224962;26;20030;-79
2024/04/10 04:12:29;;;;;;;;;;;;;;;;;;2224313;26;19932;-72
2024/04/10 04:13:30;;;;;;;;;;;;;;;;;;2226897;26;19932;-69
2024/04/10 04:14:32;;;;;;;;;;;;;;;;;;2226960;26;20305;-74
2024/04/10 04:15:33;;;;;;;;;;;;;;;;;;2227030;26;19933;-73
2024/04/10 04:16:34;;;;;;;;;;;;;;;;;;2226945;26;19925;-70
2024/04/10 04:17:35;;;;;;;;;;;;;;;;;;2226535;26;20255;-74
2024/04/10 04:18:36;;;;;;;;;;;;;;;;;;2226411;26;19926;-77
2024/04/10 04:19:38;;;;;;;;;;;;;;;;;;2226483;26;19926;-72
2024/04/10 04:20:39;;;;;;;;;;;;;;;;;;2226692;26;19932;-68
2024/04/10 04:21:40;;;;;;;;;;;;;;;;;;2226154;26;19962;-71
2024/04/10 04:22:42;;;;;;;;;;;;;;;;;;2224789;26;19940;-71
2024/04/10 04:23:45;;;;;;;;;;;;;;;;;;2226370;26;19940;-72
2024/04/10 04:24:46;;;;;;;;;;;;;;;;;;2229846;26;19932;-71
2024/04/10 04:25:49;;;;;;;;;;;;;;;;;;2230654;26;19926;-71
2024/04/10 04:26:50;;;;;;;;;;;;;;;;;;2227542;26;20348;-77
2024/04/10 04:27:52;;;;;;;;;;;;;;;;;;2226539;26;21417;-71
2024/04/10 04:28:53;;;;;;;;;;;;;;;;;;2226269;26;19925;-70
2024/04/10 04:29:54;;;;;;;;;;;;;;;;;;2226432;26;19967;-75
2024/04/10 04:30:55;;;;;;;;;;;;;;;;;;2225396;26;19937;-75
2024/04/10 04:31:58;;;;;;;;;;;;;;;;;;2225800;26;19972;-74
2024/04/10 04:32:59;;;;;;;;;;;;;;;;;;2226636;26;19933;-76
2024/04/10 04:34:07;;;;;;;;;;;;;;;;;;2226413;26;19925;-72
2024/04/10 04:35:10;;;;;;;;;;;;;;;;;;2225685;26;19925;-73
2024/04/10 04:36:11;;;;;;;;;;;;;;;;;;2226319;26;19998;-76
2024/04/10 04:37:12;;;;;;;;;;;;;;;;;;2226189;26;19948;-77
2024/04/10 04:38:14;;;;;;;;;;;;;;;;;;2226240;26;19937;-73
2024/04/10 04:39:15;;;;;;;;;;;;;;;;;;2226545;26;19926;-70
2024/04/10 04:40:16;;;;;;;;;;;;;;;;;;2226310;26;19925;-75
2024/04/10 04:41:18;;;;;;;;;;;;;;;;;;2226310;26;19926;-76
2024/04/10 04:42:19;;;;;;;;;;;;;;;;;;2225700;26;20316;-77
2024/04/10 04:43:20;;;;;;;;;;;;;;;;;;2225611;26;19929;-75
2024/04/10 04:44:21;;;;;;;;;;;;;;;;;;2225660;26;20055;-72
2024/04/10 04:45:22;;;;;;;;;;;;;;;;;;2224005;26;19940;-74
2024/04/10 04:46:24;;;;;;;;;;;;;;;;;;2226393;26;19951;-73
2024/04/10 04:47:28;;;;;;;;;;;;;;;;;;2226426;26;19926;-76
2024/04/10 04:48:29;;;;;;;;;;;;;;;;;;2225343;26;20374;-73
2024/04/10 04:49:30;;;;;;;;;;;;;;;;;;2225611;26;19934;-72
2024/04/10 04:50:32;;;;;;;;;;;;;;;;;;2224102;26;19940;-71
2024/04/10 04:51:34;;;;;;;;;;;;;;;;;;2226237;26;19945;-73
2024/04/10 04:52:35;;;;;;;;;;;;;;;;;;2226048;26;19932;-73
2024/04/10 04:53:36;;;;;;;;;;;;;;;;;;2226188;26;19932;-75
2024/04/10 04:54:37;;;;;;;;;;;;;;;;;;2226066;26;19949;-73
2024/04/10 04:55:38;;;;;;;;;;;;;;;;;;2226439;26;20230;-73
2024/04/10 04:56:40;;;;;;;;;;;;;;;;;;2223584;26;20358;-74
2024/04/10 04:57:41;;;;;;;;;;;;;;;;;;2219120;26;20742;-73
2024/04/10 04:58:42;;;;;;;;;;;;;;;;;;2224973;26;20762;-75
2024/04/10 04:59:43;;;;;;;;;;;;;;;;;;2225169;26;20028;-71
2024/04/10 05:00:45;;;;;;;;;;;;;;;;;;2227730;26;19949;-69
2024/04/10 05:01:46;;;;;;;;;;;;;;;;;;2228544;26;19986;-68
2024/04/10 05:02:47;;;;;;;;;;;;;;;;;;2230205;26;19948;-72
2024/04/10 05:05:09;;;;;;;;;;;;;;;;;;2223518;26;19932;-66
2024/04/10 05:06:11;;;;;;;;;;;;;;;;;;2224079;26;19994;-65
2024/04/10 05:07:12;;;;;;;;;;;;;;;;;;2223790;26;19937;-63
2024/04/10 05:08:14;;;;;;;;;;;;;;;;;;2220713;26;19994;-64
2024/04/10 05:09:16;;;;;;;;;;;;;;;;;;2223627;26;20004;-65
2024/04/10 05:10:17;;;;;;;;;;;;;;;;;;2224859;26;20386;-66
2024/04/10 05:11:19;;;;;;;;;;;;;;;;;;2224006;26;19925;-66
2024/04/10 05:12:21;;;;;;;;;;;;;;;;;;2223962;26;19925;-66
2024/04/10 05:13:23;;;;;;;;;;;;;;;;;;2223400;26;19930;-65
2024/04/10 05:14:24;;;;;;;;;;;;;;;;;;2224198;26;19925;-65
2024/04/10 05:15:26;;;;;;;;;;;;;;;;;;2223424;26;19926;-65
2024/04/10 05:16:27;;;;;;;;;;;;;;;;;;2222855;26;19987;-65
2024/04/10 05:17:28;;;;;;;;;;;;;;;;;;2223631;26;19932;-66
2024/04/10 05:18:30;;;;;;;;;;;;;;;;;;2222619;26;19932;-66
2024/04/10 05:19:31;;;;;;;;;;;;;;;;;;2223157;26;19958;-64
2024/04/10 05:20:33;;;;;;;;;;;;;;;;;;2224229;26;19945;-65
2024/04/10 05:21:34;;;;;;;;;;;;;;;;;;2223452;26;19934;-66
2024/04/10 05:22:36;;;;;;;;;;;;;;;;;;2223420;26;19941;-65
2024/04/10 05:23:37;;;;;;;;;;;;;;;;;;2224375;26;19994;-66
2024/04/10 05:24:39;;;;;;;;;;;;;;;;;;2221018;26;19945;-65
2024/04/10 05:25:40;;;;;;;;;;;;;;;;;;2223113;26;19926;-65
2024/04/10 05:26:41;;;;;;;;;;;;;;;;;;2224476;26;20331;-66
2024/04/10 05:27:42;;;;;;;;;;;;;;;;;;2223258;26;19933;-67
2024/04/10 05:28:44;;;;;;;;;;;;;;;;;;2224657;26;20002;-66
2024/04/10 05:29:45;;;;;;;;;;;;;;;;;;2225576;26;19932;-63
2024/04/10 05:30:46;;;;;;;;;;;;;;;;;;2225131;26;20350;-66
2024/04/10 05:31:47;;;;;;;;;;;;;;;;;;2225487;26;20353;-66
2024/04/10 05:32:48;;;;;;;;;;;;;;;;;;2224848;26;20269;-65
2024/04/10 05:33:50;;;;;;;;;;;;;;;;;;2225399;26;20354;-65
2024/04/10 05:34:51;;;;;;;;;;;;;;;;;;2224772;26;19926;-66
2024/04/10 05:35:52;;;;;;;;;;;;;;;;;;2223718;26;20019;-65
2024/04/10 05:36:53;;;;;;;;;;;;;;;;;;2224356;26;19932;-66
2024/04/10 05:37:55;;;;;;;;;;;;;;;;;;2225001;26;19926;-65
2024/04/10 05:38:56;;;;;;;;;;;;;;;;;;2224439;26;20016;-65
2024/04/10 05:39:57;;;;;;;;;;;;;;;;;;2224887;26;19926;-64
2024/04/10 05:40:58;;;;;;;;;;;;;;;;;;2225263;26;19925;-66
2024/04/10 05:42:06;;;;;;;;;;;;;;;;;;2224750;26;19925;-66
2024/04/10 05:43:08;;;;;;;;;;;;;;;;;;2223722;26;19995;-66
2024/04/10 05:44:09;;;;;;;;;;;;;;;;;;2224773;26;19933;-66
2024/04/10 05:45:10;;;;;;;;;;;;;;;;;;2224750;26;19933;-67
2024/04/10 05:46:11;;;;;;;;;;;;;;;;;;2225061;26;19933;-64
2024/04/10 05:47:12;;;;;;;;;;;;;;;;;;2223652;26;19940;-65
2024/04/10 05:48:14;;;;;;;;;;;;;;;;;;2224104;26;19937;-65
2024/04/10 05:49:15;;;;;;;;;;;;;;;;;;2223912;26;20286;-67
2024/04/10 05:50:16;;;;;;;;;;;;;;;;;;2225262;26;19936;-66
2024/04/10 05:51:17;;;;;;;;;;;;;;;;;;2225041;26;19926;-66
2024/04/10 05:52:19;;;;;;;;;;;;;;;;;;2224361;26;20254;-65
2024/04/10 05:53:20;;;;;;;;;;;;;;;;;;2224873;26;19940;-66
2024/04/10 05:54:21;;;;;;;;;;;;;;;;;;2224873;26;19940;-66
2024/04/10 05:55:23;;;;;;;;;;;;;;;;;;2221462;26;19926;-66
2024/04/10 05:56:24;;;;;;;;;;;;;;;;;;2208712;26;20252;-61
2024/04/10 05:57:27;;;;;;;;;;;;;;;;;;2224193;26;19929;-65
2024/04/10 05:58:28;;;;;;;;;;;;;;;;;;2224981;26;19926;-64
2024/04/10 05:59:29;;;;;;;;;;;;;;;;;;2226328;26;20350;-63
2024/04/10 06:00:30;;;;;;;;;;;;;;;;;;2226118;26;19932;-65
2024/04/10 06:01:32;;;;;;;;;;;;;;;;;;2224790;26;19933;-66
2024/04/10 06:02:38;;;;;;;;;;;;;;;;;;2224318;26;20109;-61
2024/04/10 06:03:39;;;;;;;;;;;;;;;;;;2225695;26;19925;-63
2024/04/10 06:04:41;;;;;;;;;;;;;;;;;;2225738;26;19925;-65
2024/04/10 06:05:42;;;;;;;;;;;;;;;;;;2225394;26;19940;-66
2024/04/10 06:06:43;;;;;;;;;;;;;;;;;;2225857;26;20374;-66
2024/04/10 06:07:45;;;;;;;;;;;;;;;;;;2225305;26;19931;-66
2024/04/10 06:08:46;;;;;;;;;;;;;;;;;;2224938;26;19934;-66
2024/04/10 06:09:47;;;;;;;;;;;;;;;;;;2224682;26;19925;-64
2024/04/10 06:10:49;;;;;;;;;;;;;;;;;;2224221;26;20020;-66
2024/04/10 06:11:50;;;;;;;;;;;;;;;;;;2224071;26;19994;-64
2024/04/10 06:12:52;;;;;;;;;;;;;;;;;;2225396;26;19926;-64
2024/04/10 06:13:53;;;;;;;;;;;;;;;;;;2226073;26;20392;-64
2024/04/10 06:14:55;;;;;;;;;;;;;;;;;;2224305;26;19932;-65
2024/04/10 06:15:56;;;;;;;;;;;;;;;;;;2225160;26;19937;-65
2024/04/10 06:16:57;;;;;;;;;;;;;;;;;;2223772;26;19933;-65
2024/04/10 06:17:58;;;;;;;;;;;;;;;;;;2223818;26;20280;-66
2024/04/10 06:19:00;;;;;;;;;;;;;;;;;;2225803;26;19926;-66
2024/04/10 06:20:05;;;;;;;;;;;;;;;;;;2225958;26;20369;-66
2024/04/10 06:21:07;;;;;;;;;;;;;;;;;;2225582;26;20387;-65
2024/04/10 06:22:08;;;;;;;;;;;;;;;;;;2226409;26;19925;-66
2024/04/10 06:23:09;;;;;;;;;;;;;;;;;;2225958;26;19933;-66
2024/04/10 06:24:13;;;;;;;;;;;;;;;;;;2226420;26;19926;-65
2024/04/10 06:25:14;;;;;;;;;;;;;;;;;;2223642;26;20301;-66
2024/04/10 06:26:16;;;;;;;;;;;;;;;;;;2226089;26;19940;-62
2024/04/10 06:27:17;;;;;;;;;;;;;;;;;;2226838;26;19932;-65
2024/04/10 06:28:18;;;;;;;;;;;;;;;;;;2224975;26;19926;-64
2024/04/10 06:29:19;;;;;;;;;;;;;;;;;;2225585;26;19937;-66
2024/04/10 06:30:21;;;;;;;;;;;;;;;;;;2225804;26;19926;-66
2024/04/10 06:31:22;;;;;;;;;;;;;;;;;;2222955;26;19933;-65
2024/04/10 06:32:25;;;;;;;;;;;;;;;;;;2225320;26;19925;-65
2024/04/10 06:33:26;;;;;;;;;;;;;;;;;;2226187;26;19966;-66
2024/04/10 06:34:27;;;;;;;;;;;;;;;;;;2225516;26;19929;-64
2024/04/10 06:35:29;;;;;;;;;;;;;;;;;;2226100;26;19932;-66
2024/04/10 06:36:30;;;;;;;;;;;;;;;;;;2226168;26;19925;-64
2024/04/10 06:37:33;;;;;;;;;;;;;;;;;;2225413;26;20243;-64
2024/04/10 06:38:36;;;;;;;;;;;;;;;;;;2223554;26;19925;-65
2024/04/10 06:39:38;;;;;;;;;;;;;;;;;;2225682;26;19932;-65
2024/04/10 06:40:41;;;;;;;;;;;;;;;;;;2225850;26;19995;-66
2024/04/10 06:41:43;;;;;;;;;;;;;;;;;;2224914;26;19937;-66
2024/04/10 06:42:44;;;;;;;;;;;;;;;;;;2225815;26;19965;-65
2024/04/10 06:43:45;;;;;;;;;;;;;;;;;;2225329;26;19940;-63
2024/04/10 06:44:46;;;;;;;;;;;;;;;;;;2225491;26;19925;-64
2024/04/10 06:45:48;;;;;;;;;;;;;;;;;;2225278;26;20115;-64
2024/04/10 06:46:49;;;;;;;;;;;;;;;;;;2225936;26;20359;-65
2024/04/10 06:47:50;;;;;;;;;;;;;;;;;;2225486;26;20258;-65
2024/04/10 06:48:51;;;;;;;;;;;;;;;;;;2224896;26;19949;-64
2024/04/10 06:49:53;;;;;;;;;;;;;;;;;;2225651;26;19940;-65
2024/04/10 06:50:55;;;;;;;;;;;;;;;;;;2225614;26;19957;-66
2024/04/10 06:51:56;;;;;;;;;;;;;;;;;;2225763;26;19925;-64
2024/04/10 06:52:57;;;;;;;;;;;;;;;;;;2225465;26;19937;-63
2024/04/10 06:53:58;;;;;;;;;;;;;;;;;;2225144;26;19940;-64
2024/04/10 06:55:00;;;;;;;;;;;;;;;;;;2225279;26;19937;-67
2024/04/10 06:56:01;;;;;;;;;;;;;;;;;;2225959;26;20366;-65
2024/04/10 06:57:02;;;;;;;;;;;;;;;;;;2223626;26;19925;-63
2024/04/10 06:58:03;;;;;;;;;;;;;;;;;;2224538;26;19925;-65
2024/04/10 06:59:04;;;;;;;;;;;;;;;;;;2225004;26;19925;-65
2024/04/10 07:00:12;;;;;;;;;;;;;;;;;;2225429;26;20259;-68
2024/04/10 07:01:14;;;;;;;;;;;;;;;;;;2223278;26;19933;-67